createdAt,value
2022-09-11T00:01:49.091Z,15.76
2022-09-11T00:04:18.461Z,15.75
2022-09-11T00:06:46.754Z,15.75
2022-09-11T00:09:15.203Z,15.72
2022-09-11T00:11:44.109Z,15.67
2022-09-11T00:14:13.991Z,15.64
2022-09-11T00:16:45.716Z,15.58
2022-09-11T00:19:17.746Z,15.53
2022-09-11T00:21:47.267Z,15.50
2022-09-11T00:24:16.152Z,15.46
2022-09-11T00:26:45.020Z,15.43
2022-09-11T00:29:13.528Z,15.40
2022-09-11T00:31:43.417Z,15.38
2022-09-11T00:34:12.561Z,15.37
2022-09-11T00:36:44.305Z,15.38
2022-09-11T00:39:14.346Z,15.39
2022-09-11T00:41:46.517Z,15.39
2022-09-11T00:44:17.942Z,15.39
2022-09-11T00:46:53.382Z,15.38
2022-09-11T00:49:46.669Z,15.36
2022-09-11T00:52:20.632Z,15.31
2022-09-11T00:54:56.587Z,15.30
2022-09-11T00:57:28.098Z,15.28
2022-09-11T00:59:59.674Z,15.26
2022-09-11T01:02:31.502Z,15.27
2022-09-11T01:05:01.217Z,15.27
2022-09-11T01:07:34.241Z,15.26
2022-09-11T01:10:07.667Z,15.25
2022-09-11T01:12:44.273Z,15.24
2022-09-11T01:15:42.197Z,15.23
2022-09-11T01:18:14.634Z,15.20
2022-09-11T01:21:12.332Z,15.19
2022-09-11T01:23:43.833Z,15.17
2022-09-11T01:26:44.975Z,15.17
2022-09-11T01:29:33.052Z,15.16
2022-09-11T01:32:19.842Z,15.15
2022-09-11T01:35:08.406Z,15.15
2022-09-11T01:38:01.523Z,15.17
2022-09-11T01:40:48.332Z,15.18
2022-09-11T01:43:23.583Z,15.20
2022-09-11T01:45:52.930Z,15.21
2022-09-11T01:48:26.088Z,15.24
2022-09-11T01:50:58.168Z,15.26
2022-09-11T01:53:33.900Z,15.28
2022-09-11T01:56:13.534Z,15.29
2022-09-11T01:58:46.193Z,15.29
2022-09-11T02:01:20.516Z,15.30
2022-09-11T02:03:59.312Z,15.31
2022-09-11T02:06:34.442Z,15.30
2022-09-11T02:09:09.368Z,15.30
2022-09-11T02:11:42.332Z,15.28
2022-09-11T02:14:25.026Z,15.27
2022-09-11T02:17:13.365Z,15.24
2022-09-11T02:19:42.113Z,15.21
2022-09-11T02:22:10.540Z,15.19
2022-09-11T02:24:39.893Z,15.16
2022-09-11T02:27:14.873Z,15.12
2022-09-11T02:29:43.764Z,15.08
2022-09-11T02:32:12.966Z,15.05
2022-09-11T02:34:46.947Z,15.01
2022-09-11T02:37:36.616Z,14.97
2022-09-11T02:40:12.387Z,14.94
2022-09-11T02:43:19.704Z,14.92
2022-09-11T02:45:54.481Z,14.89
2022-09-11T02:48:48.726Z,14.89
2022-09-11T02:52:02.169Z,14.85
2022-09-11T02:54:53.212Z,14.81
2022-09-11T02:57:46.981Z,14.76
2022-09-11T03:00:15.328Z,14.75
2022-09-11T03:02:44.371Z,14.74
2022-09-11T03:05:13.576Z,14.74
2022-09-11T03:07:43.427Z,14.76
2022-09-11T03:10:11.938Z,14.77
2022-09-11T03:12:41.858Z,14.80
2022-09-11T03:15:12.561Z,14.82
2022-09-11T03:17:43.545Z,14.82
2022-09-11T03:20:12.334Z,14.85
2022-09-11T03:22:44.049Z,14.88
2022-09-11T03:25:12.407Z,14.87
2022-09-11T03:27:43.954Z,14.86
2022-09-11T03:30:14.591Z,14.85
2022-09-11T03:32:42.912Z,14.84
2022-09-11T03:35:14.192Z,14.83
2022-09-11T03:37:43.258Z,14.79
2022-09-11T03:40:12.672Z,14.77
2022-09-11T03:42:41.246Z,14.73
2022-09-11T03:45:09.783Z,14.71
2022-09-11T03:47:38.814Z,14.67
2022-09-11T03:50:09.161Z,14.63
2022-09-11T03:52:37.692Z,14.60
2022-09-11T03:55:08.317Z,14.56
2022-09-11T03:57:37.993Z,14.52
2022-09-11T04:00:12.054Z,14.50
2022-09-11T04:02:49.720Z,14.46
2022-09-11T04:05:34.493Z,14.45
2022-09-11T04:08:04.092Z,14.40
2022-09-11T04:10:34.226Z,14.37
2022-09-11T04:13:04.024Z,14.34
2022-09-11T04:15:32.959Z,14.33
2022-09-11T04:18:05.498Z,14.30
2022-09-11T04:20:38.860Z,14.30
2022-09-11T04:23:10.324Z,14.28
2022-09-11T04:25:39.157Z,14.27
2022-09-11T04:28:08.929Z,14.22
2022-09-11T04:30:38.750Z,14.19
2022-09-11T04:33:08.030Z,14.15
2022-09-11T04:35:40.593Z,14.12
2022-09-11T04:38:09.256Z,14.10
2022-09-11T04:40:42.940Z,14.09
2022-09-11T04:43:12.217Z,14.06
2022-09-11T04:45:41.748Z,14.03
2022-09-11T04:48:12.001Z,14.01
2022-09-11T04:50:41.755Z,13.98
2022-09-11T04:53:18.910Z,13.96
2022-09-11T04:55:50.514Z,13.96
2022-09-11T04:58:19.342Z,13.93
2022-09-11T05:00:48.129Z,13.92
2022-09-11T05:03:18.039Z,13.91
2022-09-11T05:05:46.580Z,13.90
2022-09-11T05:08:15.237Z,13.89
2022-09-11T05:10:44.070Z,13.88
2022-09-11T05:13:12.453Z,13.88
2022-09-11T05:15:43.905Z,13.88
2022-09-11T05:18:12.445Z,13.89
2022-09-11T05:20:41.537Z,13.89
2022-09-11T05:23:13.814Z,13.90
2022-09-11T05:25:43.457Z,13.91
2022-09-11T05:28:11.877Z,13.90
2022-09-11T05:30:40.262Z,13.92
2022-09-11T05:33:08.999Z,13.93
2022-09-11T05:35:37.800Z,13.93
2022-09-11T05:38:06.629Z,13.95
2022-09-11T05:40:34.945Z,13.96
2022-09-11T05:43:04.367Z,13.99
2022-09-11T05:45:33.139Z,14.00
2022-09-11T05:48:03.477Z,14.07
2022-09-11T05:50:35.389Z,14.14
2022-09-11T05:53:08.140Z,14.18
2022-09-11T05:55:37.663Z,14.22
2022-09-11T05:58:06.966Z,14.27
2022-09-11T06:00:35.595Z,14.30
2022-09-11T06:03:04.642Z,14.35
2022-09-11T06:05:34.061Z,14.40
2022-09-11T06:08:05.052Z,14.44
2022-09-11T06:10:34.093Z,14.48
2022-09-11T06:13:02.983Z,14.51
2022-09-11T06:15:46.102Z,14.57
2022-09-11T06:18:16.828Z,14.62
2022-09-11T06:21:00.723Z,14.69
2022-09-11T06:23:35.842Z,14.74
2022-09-11T06:26:13.116Z,14.78
2022-09-11T06:28:44.174Z,14.84
2022-09-11T06:31:19.220Z,14.92
2022-09-11T06:33:48.917Z,15.00
2022-09-11T06:36:23.994Z,15.07
2022-09-11T06:38:58.074Z,15.15
2022-09-11T06:41:28.812Z,15.24
2022-09-11T06:44:03.574Z,15.34
2022-09-11T06:46:32.773Z,15.45
2022-09-11T06:49:02.577Z,15.73
2022-09-11T06:51:32.594Z,16.08
2022-09-11T06:54:02.456Z,16.37
2022-09-11T06:56:34.995Z,16.69
2022-09-11T06:59:03.539Z,16.85
2022-09-11T07:01:34.579Z,16.99
2022-09-11T07:04:04.190Z,17.08
2022-09-11T07:06:35.290Z,17.15
2022-09-11T07:09:04.680Z,17.29
2022-09-11T07:11:44.914Z,17.52
2022-09-11T07:14:13.724Z,17.82
2022-09-11T07:16:45.310Z,18.10
2022-09-11T07:19:14.902Z,18.29
2022-09-11T07:21:44.955Z,18.57
2022-09-11T07:24:13.451Z,18.89
2022-09-11T07:26:45.057Z,19.16
2022-09-11T07:29:23.642Z,19.54
2022-09-11T07:31:56.236Z,19.79
2022-09-11T07:34:24.958Z,19.95
2022-09-11T07:36:53.514Z,20.08
2022-09-11T07:39:25.895Z,20.37
2022-09-11T07:42:08.264Z,20.65
2022-09-11T07:44:37.182Z,20.96
2022-09-11T07:47:05.775Z,21.16
2022-09-11T07:49:40.239Z,21.03
2022-09-11T07:52:13.653Z,20.88
2022-09-11T07:54:52.169Z,20.65
2022-09-11T07:57:24.222Z,20.43
2022-09-11T07:59:53.528Z,20.32
2022-09-11T08:02:22.664Z,20.31
2022-09-11T08:04:51.710Z,20.24
2022-09-11T08:07:23.138Z,20.15
2022-09-11T08:10:10.180Z,20.02
2022-09-11T08:12:42.053Z,19.98
2022-09-11T08:15:11.169Z,19.92
2022-09-11T08:17:39.662Z,19.90
2022-09-11T08:20:09.733Z,19.98
2022-09-11T08:22:38.558Z,20.14
2022-09-11T08:25:07.788Z,20.44
2022-09-11T08:27:37.571Z,20.71
2022-09-11T08:30:06.712Z,20.81
2022-09-11T08:32:35.159Z,20.78
2022-09-11T08:35:03.791Z,20.79
2022-09-11T08:37:32.174Z,21.05
2022-09-11T08:40:02.120Z,21.33
2022-09-11T08:42:32.431Z,21.54
2022-09-11T08:45:04.611Z,21.65
2022-09-11T08:47:42.830Z,21.72
2022-09-11T08:50:24.661Z,21.85
2022-09-11T08:52:56.760Z,21.89
2022-09-11T08:55:39.516Z,21.83
2022-09-11T08:58:19.051Z,21.73
2022-09-11T09:01:02.645Z,21.63
2022-09-11T09:03:43.521Z,21.55
2022-09-11T09:06:24.738Z,21.51
2022-09-11T09:09:24.603Z,21.48
2022-09-11T09:12:22.376Z,21.38
2022-09-11T09:15:08.108Z,21.25
2022-09-11T09:17:43.500Z,21.18
2022-09-11T09:20:21.108Z,21.20
2022-09-11T09:23:00.189Z,21.16
2022-09-11T09:25:35.351Z,21.11
2022-09-11T09:28:26.369Z,21.07
2022-09-11T09:31:05.600Z,20.95
2022-09-11T09:33:46.698Z,20.83
2022-09-11T09:36:45.798Z,20.91
2022-09-11T09:39:15.866Z,21.01
2022-09-11T09:41:59.523Z,21.13
2022-09-11T09:44:50.619Z,21.20
2022-09-11T09:47:19.099Z,21.22
2022-09-11T09:49:47.889Z,21.15
2022-09-11T09:52:17.187Z,21.10
2022-09-11T09:55:01.165Z,21.14
2022-09-11T09:57:33.285Z,21.13
2022-09-11T10:00:07.021Z,21.12
2022-09-11T10:02:51.666Z,21.13
2022-09-11T10:05:33.326Z,21.25
2022-09-11T10:08:04.724Z,21.33
2022-09-11T10:10:38.880Z,21.38
2022-09-11T10:13:25.148Z,21.48
2022-09-11T10:15:56.856Z,21.54
2022-09-11T10:18:37.541Z,21.65
2022-09-11T10:21:12.143Z,21.71
2022-09-11T10:23:53.571Z,21.54
2022-09-11T10:26:38.026Z,21.40
2022-09-11T10:29:12.136Z,21.36
2022-09-11T10:31:48.858Z,21.44
2022-09-11T10:34:20.377Z,21.54
2022-09-11T10:37:00.516Z,21.69
2022-09-11T10:39:36.323Z,21.70
2022-09-11T10:42:16.743Z,21.64
2022-09-11T10:44:48.069Z,21.46
2022-09-11T10:47:28.224Z,21.37
2022-09-11T10:50:20.385Z,21.13
2022-09-11T10:52:58.198Z,21.03
2022-09-11T10:55:32.290Z,21.04
2022-09-11T10:58:23.766Z,21.01
2022-09-11T11:00:52.920Z,21.06
2022-09-11T11:03:26.716Z,21.11
2022-09-11T11:06:14.216Z,21.15
2022-09-11T11:08:58.877Z,21.14
2022-09-11T11:11:56.134Z,21.13
2022-09-11T11:14:37.951Z,21.00
2022-09-11T11:17:18.726Z,20.93
2022-09-11T11:20:14.998Z,20.78
2022-09-11T11:22:58.764Z,20.69
2022-09-11T11:26:03.462Z,20.61
2022-09-11T11:28:49.311Z,20.51
2022-09-11T11:31:48.382Z,20.40
2022-09-11T11:34:41.135Z,20.36
2022-09-11T11:37:15.631Z,20.31
2022-09-11T11:39:53.488Z,20.25
2022-09-11T11:42:35.068Z,20.19
2022-09-11T11:45:27.385Z,20.12
2022-09-11T11:47:56.148Z,20.08
2022-09-11T11:50:40.517Z,20.08
2022-09-11T11:53:29.764Z,20.03
2022-09-11T11:56:18.353Z,20.02
2022-09-11T11:59:14.769Z,20.02
2022-09-11T12:02:22.087Z,20.03
2022-09-11T12:05:09.937Z,20.07
2022-09-11T12:07:43.752Z,20.07
2022-09-11T12:10:22.242Z,20.04
2022-09-11T12:12:56.131Z,20.09
2022-09-11T12:15:30.241Z,20.24
2022-09-11T12:18:03.554Z,20.40
2022-09-11T12:20:35.044Z,20.57
2022-09-11T12:23:04.514Z,20.73
2022-09-11T12:25:35.139Z,20.79
2022-09-11T12:28:34.829Z,20.79
2022-09-11T12:31:08.878Z,20.69
2022-09-11T12:33:44.885Z,20.70
2022-09-11T12:36:19.673Z,20.74
2022-09-11T12:38:54.109Z,20.77
2022-09-11T12:41:30.386Z,20.89
2022-09-11T12:44:00.780Z,21.00
2022-09-11T12:46:29.139Z,21.10
2022-09-11T12:49:20.499Z,21.12
2022-09-11T12:51:55.359Z,21.12
2022-09-11T12:54:33.728Z,21.12
2022-09-11T12:57:05.587Z,21.15
2022-09-11T12:59:38.860Z,21.12
2022-09-11T13:02:33.739Z,21.03
2022-09-11T13:05:05.825Z,20.98
2022-09-11T13:07:37.549Z,20.92
2022-09-11T13:10:10.710Z,20.82
2022-09-11T13:12:50.317Z,20.75
2022-09-11T13:15:32.388Z,20.69
2022-09-11T13:18:01.138Z,20.67
2022-09-11T13:20:30.634Z,20.65
2022-09-11T13:23:19.737Z,20.71
2022-09-11T13:25:48.262Z,20.74
2022-09-11T13:28:23.277Z,20.83
2022-09-11T13:31:05.096Z,20.98
2022-09-11T13:33:33.718Z,21.11
2022-09-11T13:36:03.480Z,21.21
2022-09-11T13:38:35.271Z,21.35
2022-09-11T13:41:12.407Z,21.43
2022-09-11T13:43:50.345Z,21.51
2022-09-11T13:46:31.425Z,21.56
2022-09-11T13:49:26.311Z,21.67
2022-09-11T13:51:58.862Z,21.71
2022-09-11T13:54:32.243Z,21.71
2022-09-11T13:57:00.562Z,21.72
2022-09-11T13:59:38.218Z,21.67
2022-09-11T14:02:35.031Z,21.52
2022-09-11T14:05:26.674Z,21.36
2022-09-11T14:08:10.064Z,21.20
2022-09-11T14:10:48.512Z,21.03
2022-09-11T14:13:33.148Z,20.87
2022-09-11T14:16:07.562Z,20.82
2022-09-11T14:18:52.955Z,20.83
2022-09-11T14:21:25.516Z,20.88
2022-09-11T14:23:56.650Z,20.82
2022-09-11T14:26:40.405Z,20.74
2022-09-11T14:29:24.991Z,20.68
2022-09-11T14:31:57.674Z,20.61
2022-09-11T14:34:29.727Z,20.55
2022-09-11T14:37:28.974Z,20.57
2022-09-11T14:40:00.268Z,20.53
2022-09-11T14:42:31.714Z,20.47
2022-09-11T14:45:00.518Z,20.41
2022-09-11T14:47:29.620Z,20.37
2022-09-11T14:49:58.127Z,20.33
2022-09-11T14:52:28.536Z,20.25
2022-09-11T14:54:59.380Z,20.24
2022-09-11T14:57:30.623Z,20.26
2022-09-11T15:00:01.455Z,20.29
2022-09-11T15:02:29.856Z,20.34
2022-09-11T15:04:58.812Z,20.35
2022-09-11T15:07:27.858Z,20.36
2022-09-11T15:09:58.884Z,20.38
2022-09-11T15:12:31.392Z,20.43
2022-09-11T15:14:59.992Z,20.48
2022-09-11T15:17:32.067Z,20.49
2022-09-11T15:20:01.017Z,20.53
2022-09-11T15:22:29.372Z,20.56
2022-09-11T15:25:00.412Z,20.57
2022-09-11T15:27:31.389Z,20.58
2022-09-11T15:30:00.694Z,20.52
2022-09-11T15:32:29.027Z,20.45
2022-09-11T15:34:57.768Z,20.41
2022-09-11T15:37:26.385Z,20.38
2022-09-11T15:39:55.667Z,20.32
2022-09-11T15:42:25.571Z,20.29
2022-09-11T15:44:53.913Z,20.25
2022-09-11T15:47:22.551Z,20.21
2022-09-11T15:49:50.944Z,20.18
2022-09-11T15:52:19.529Z,20.18
2022-09-11T15:54:56.752Z,20.17
2022-09-11T15:57:25.699Z,20.16
2022-09-11T15:59:54.342Z,20.13
2022-09-11T16:02:24.155Z,20.11
2022-09-11T16:04:54.001Z,20.06
2022-09-11T16:07:22.712Z,20.03
2022-09-11T16:09:51.417Z,20.00
2022-09-11T16:12:19.954Z,19.96
2022-09-11T16:14:48.319Z,19.93
2022-09-11T16:17:20.636Z,19.88
2022-09-11T16:19:49.121Z,19.86
2022-09-11T16:22:18.253Z,19.84
2022-09-11T16:24:46.624Z,19.82
2022-09-11T16:27:15.183Z,19.80
2022-09-11T16:30:20.290Z,19.77
2022-09-11T16:32:34.252Z,19.75
2022-09-11T16:35:02.662Z,19.74
2022-09-11T16:37:35.417Z,19.71
2022-09-11T16:40:04.468Z,19.67
2022-09-11T16:42:33.201Z,19.64
2022-09-11T16:45:01.576Z,19.62
2022-09-11T16:47:30.545Z,19.61
2022-09-11T16:50:07.901Z,19.57
2022-09-11T16:52:38.692Z,19.53
2022-09-11T16:55:09.735Z,19.50
2022-09-11T16:57:41.768Z,19.47
2022-09-11T17:00:12.161Z,19.45
2022-09-11T17:02:40.935Z,19.43
2022-09-11T17:05:09.764Z,19.42
2022-09-11T17:07:38.527Z,19.40
2022-09-11T17:10:07.453Z,19.37
2022-09-11T17:12:36.159Z,19.34
2022-09-11T17:15:04.957Z,19.33
2022-09-11T17:17:35.522Z,19.31
2022-09-11T17:20:04.811Z,19.26
2022-09-11T17:22:41.288Z,19.21
2022-09-11T17:25:13.970Z,19.16
2022-09-11T17:27:42.702Z,19.13
2022-09-11T17:30:11.870Z,19.07
2022-09-11T17:32:40.153Z,19.01
2022-09-11T17:35:09.972Z,18.95
2022-09-11T17:37:38.670Z,18.89
2022-09-11T17:40:08.956Z,18.84
2022-09-11T17:42:37.504Z,18.79
2022-09-11T17:45:07.675Z,18.73
2022-09-11T17:47:36.697Z,18.67
2022-09-11T17:50:05.701Z,18.61
2022-09-11T17:52:36.950Z,18.56
2022-09-11T17:55:06.644Z,18.51
2022-09-11T17:57:35.400Z,18.45
2022-09-11T18:00:05.304Z,18.40
2022-09-11T18:02:40.580Z,18.33
2022-09-11T18:05:09.266Z,18.29
2022-09-11T18:07:39.302Z,18.26
2022-09-11T18:10:08.789Z,18.20
2022-09-11T18:12:37.181Z,18.15
2022-09-11T18:15:06.602Z,18.09
2022-09-11T18:17:35.123Z,18.02
2022-09-11T18:20:04.940Z,17.96
2022-09-11T18:22:36.008Z,17.89
2022-09-11T18:25:05.246Z,17.84
2022-09-11T18:27:33.634Z,17.81
2022-09-11T18:30:02.399Z,17.77
2022-09-11T18:32:31.112Z,17.73
2022-09-11T18:35:00.024Z,17.71
2022-09-11T18:37:28.664Z,17.69
2022-09-11T18:39:57.002Z,17.66
2022-09-11T18:42:25.535Z,17.64
2022-09-11T18:44:53.858Z,17.64
2022-09-11T18:47:23.884Z,17.62
2022-09-11T18:49:53.093Z,17.62
2022-09-11T18:52:26.331Z,17.59
2022-09-11T18:54:54.803Z,17.54
2022-09-11T18:57:26.757Z,17.52
2022-09-11T18:59:55.114Z,17.52
2022-09-11T19:02:23.447Z,17.50
2022-09-11T19:04:52.763Z,17.48
2022-09-11T19:07:21.308Z,17.47
2022-09-11T19:09:49.656Z,17.45
2022-09-11T19:12:17.994Z,17.43
2022-09-11T19:14:48.615Z,17.41
2022-09-11T19:17:16.834Z,17.40
2022-09-11T19:19:48.327Z,17.37
2022-09-11T19:22:16.647Z,17.32
2022-09-11T19:24:45.135Z,17.29
2022-09-11T19:27:13.476Z,17.24
2022-09-11T19:29:42.194Z,17.20
2022-09-11T19:32:13.190Z,17.17
2022-09-11T19:34:47.362Z,17.14
2022-09-11T19:37:16.805Z,17.09
2022-09-11T19:39:48.371Z,17.03
2022-09-11T19:42:17.225Z,17.00
2022-09-11T19:44:45.615Z,16.95
2022-09-11T19:47:14.249Z,16.88
2022-09-11T19:49:42.539Z,16.83
2022-09-11T19:52:11.859Z,16.79
2022-09-11T19:54:40.170Z,16.73
2022-09-11T19:57:08.726Z,16.70
2022-09-11T19:59:38.118Z,16.69
2022-09-11T20:02:06.542Z,16.69
2022-09-11T20:04:34.953Z,16.66
2022-09-11T20:07:05.287Z,16.64
2022-09-11T20:09:34.269Z,16.60
2022-09-11T20:12:03.537Z,16.56
2022-09-11T20:14:32.016Z,16.53
2022-09-11T20:17:04.163Z,16.52
2022-09-11T20:19:32.779Z,16.50
2022-09-11T20:22:04.132Z,16.48
2022-09-11T20:24:32.409Z,16.47
2022-09-11T20:27:00.738Z,16.46
2022-09-11T20:29:29.186Z,16.46
2022-09-11T20:32:00.549Z,16.45
2022-09-11T20:34:31.694Z,16.45
2022-09-11T20:37:00.703Z,16.45
2022-09-11T20:39:29.372Z,16.44
2022-09-11T20:41:57.689Z,16.44
2022-09-11T20:44:27.062Z,16.41
2022-09-11T20:46:55.464Z,16.40
2022-09-11T20:49:24.703Z,16.37
2022-09-11T20:51:53.097Z,16.35
2022-09-11T20:54:21.651Z,16.32
2022-09-11T20:56:49.963Z,16.30
2022-09-11T20:59:18.214Z,16.27
2022-09-11T21:01:46.645Z,16.26
2022-09-11T21:04:14.980Z,16.23
2022-09-11T21:06:43.402Z,16.20
2022-09-11T21:09:12.150Z,16.17
2022-09-11T21:11:42.577Z,16.13
2022-09-11T21:14:12.492Z,16.10
2022-09-11T21:16:40.958Z,16.07
2022-09-11T21:19:10.388Z,16.07
2022-09-11T21:21:40.116Z,16.04
2022-09-11T21:24:12.969Z,16.01
2022-09-11T21:26:42.440Z,15.96
2022-09-11T21:29:13.578Z,15.93
2022-09-11T21:31:41.954Z,15.91
2022-09-11T21:34:11.187Z,15.89
2022-09-11T21:36:39.700Z,15.87
2022-09-11T21:39:08.175Z,15.86
2022-09-11T21:41:36.699Z,15.84
2022-09-11T21:44:05.027Z,15.83
2022-09-11T21:46:34.510Z,15.80
2022-09-11T21:49:03.161Z,15.78
2022-09-11T21:51:31.606Z,15.75
2022-09-11T21:54:01.807Z,15.72
2022-09-11T21:56:33.243Z,15.69
2022-09-11T21:59:02.250Z,15.67
2022-09-11T22:01:31.993Z,15.64
2022-09-11T22:04:01.314Z,15.62
2022-09-11T22:06:30.516Z,15.59
2022-09-11T22:08:59.655Z,15.56
2022-09-11T22:11:28.038Z,15.52
2022-09-11T22:13:56.584Z,15.49
2022-09-11T22:16:25.238Z,15.48
2022-09-11T22:18:54.630Z,15.46
2022-09-11T22:21:25.785Z,15.44
2022-09-11T22:23:57.693Z,15.42
2022-09-11T22:26:26.049Z,15.41
2022-09-11T22:28:54.653Z,15.39
2022-09-11T22:31:25.177Z,15.37
2022-09-11T22:33:55.053Z,15.35
2022-09-11T22:36:29.792Z,15.33
2022-09-11T22:38:59.074Z,15.30
2022-09-11T22:41:27.739Z,15.29
2022-09-11T22:43:56.230Z,15.26
2022-09-11T22:46:26.904Z,15.25
2022-09-11T22:48:55.308Z,15.23
2022-09-11T22:51:23.520Z,15.20
2022-09-11T22:53:51.915Z,15.17
2022-09-11T22:56:20.555Z,15.15
2022-09-11T22:58:49.516Z,15.11
2022-09-11T23:01:22.135Z,15.09
2022-09-11T23:03:52.094Z,15.06
2022-09-11T23:06:39.595Z,15.04
2022-09-11T23:09:13.115Z,15.02
2022-09-11T23:11:41.516Z,15.00
2022-09-11T23:14:14.245Z,14.97
2022-09-11T23:16:43.937Z,14.96
2022-09-11T23:19:14.376Z,14.94
2022-09-11T23:21:43.258Z,14.94
2022-09-11T23:24:13.963Z,14.90
2022-09-11T23:26:43.701Z,14.89
2022-09-11T23:29:12.223Z,14.86
2022-09-11T23:31:41.024Z,14.82
2022-09-11T23:34:13.880Z,14.80
2022-09-11T23:36:42.999Z,14.78
2022-09-11T23:39:11.378Z,14.76
2022-09-11T23:41:39.840Z,14.72
2022-09-11T23:44:09.188Z,14.70
2022-09-11T23:46:38.285Z,14.67
2022-09-11T23:49:07.434Z,14.64
2022-09-11T23:51:36.000Z,14.62
2022-09-11T23:54:05.238Z,14.59
2022-09-11T23:56:33.711Z,14.56
2022-09-11T23:59:02.060Z,14.55
